createdAt,value
2023-04-10T00:02:14.518Z,6.10
2023-04-10T00:04:41.850Z,4.40
2023-04-10T00:07:08.747Z,5.70
2023-04-10T00:09:36.072Z,5.70
2023-04-10T00:12:02.905Z,4.40
2023-04-10T00:14:29.710Z,7.50
2023-04-10T00:16:56.601Z,5.20
2023-04-10T00:19:23.451Z,6.80
2023-04-10T00:21:50.293Z,6.90
2023-04-10T00:24:17.137Z,5.70
2023-04-10T00:26:43.969Z,7.50
2023-04-10T00:29:10.881Z,4.30
2023-04-10T00:31:37.755Z,4.20
2023-04-10T00:34:05.996Z,4.10
2023-04-10T00:36:33.098Z,4.30
2023-04-10T00:38:59.947Z,6.50
2023-04-10T00:41:27.439Z,5.80
2023-04-10T00:43:57.626Z,5.70
2023-04-10T00:46:24.809Z,4.00
2023-04-10T00:48:52.589Z,4.00
2023-04-10T00:51:20.791Z,4.00
2023-04-10T00:53:51.004Z,3.70
2023-04-10T00:56:18.992Z,5.90
2023-04-10T00:58:45.890Z,6.50
2023-04-10T01:01:13.156Z,5.20
2023-04-10T01:03:40.376Z,3.90
2023-04-10T01:06:49.857Z,3.90
2023-04-10T01:09:26.002Z,3.90
2023-04-10T01:12:02.215Z,3.80
2023-04-10T01:15:10.804Z,5.80
2023-04-10T01:17:55.285Z,3.80
2023-04-10T01:20:23.592Z,3.70
2023-04-10T01:22:57.316Z,3.60
2023-04-10T01:25:54.181Z,3.70
2023-04-10T01:29:00.431Z,6.20
2023-04-10T01:31:35.711Z,3.60
2023-04-10T01:34:09.549Z,3.60
2023-04-10T01:36:57.472Z,5.60
2023-04-10T01:39:24.506Z,3.60
2023-04-10T01:41:56.344Z,3.60
2023-04-10T01:44:33.578Z,5.50
2023-04-10T01:47:00.662Z,4.80
2023-04-10T01:49:28.578Z,4.90
2023-04-10T01:52:02.406Z,6.50
2023-04-10T01:54:30.842Z,3.50
2023-04-10T01:57:02.251Z,6.70
2023-04-10T01:59:31.529Z,5.90
2023-04-10T02:01:59.341Z,4.40
2023-04-10T02:04:26.846Z,6.70
2023-04-10T02:07:02.664Z,3.50
2023-04-10T02:09:34.362Z,3.50
2023-04-10T02:12:07.099Z,3.40
2023-04-10T02:14:36.442Z,3.50
2023-04-10T02:17:03.443Z,3.40
2023-04-10T02:19:31.564Z,4.90
2023-04-10T02:21:58.867Z,3.50
2023-04-10T02:24:26.480Z,6.60
2023-04-10T02:26:53.496Z,3.40
2023-04-10T02:29:20.469Z,5.90
2023-04-10T02:31:47.397Z,5.40
2023-04-10T02:34:14.480Z,3.40
2023-04-10T02:36:41.888Z,5.30
2023-04-10T02:39:11.186Z,3.30
2023-04-10T02:41:46.634Z,3.30
2023-04-10T02:44:14.342Z,3.30
2023-04-10T02:46:42.091Z,3.30
2023-04-10T02:49:09.497Z,6.30
2023-04-10T02:51:36.995Z,4.80
2023-04-10T02:54:04.753Z,3.30
2023-04-10T02:56:36.482Z,1.90
2023-04-10T02:59:03.725Z,3.30
2023-04-10T03:01:32.075Z,3.30
2023-04-10T03:04:00.007Z,6.10
2023-04-10T03:06:31.419Z,5.60
2023-04-10T03:08:58.745Z,3.20
2023-04-10T03:11:27.338Z,5.80
2023-04-10T03:13:54.513Z,3.30
2023-04-10T03:16:21.868Z,5.40
2023-04-10T03:18:48.751Z,5.60
2023-04-10T03:21:16.608Z,5.30
2023-04-10T03:23:43.456Z,3.30
2023-04-10T03:26:11.293Z,3.30
2023-04-10T03:28:39.827Z,3.20
2023-04-10T03:31:10.681Z,5.70
2023-04-10T03:33:37.815Z,3.20
2023-04-10T03:36:05.262Z,3.20
2023-04-10T03:38:33.460Z,3.20
2023-04-10T03:41:00.312Z,3.20
2023-04-10T03:43:31.341Z,3.20
2023-04-10T03:45:59.042Z,5.60
2023-04-10T03:48:28.462Z,3.20
2023-04-10T03:50:55.584Z,3.10
2023-04-10T03:53:23.169Z,4.30
2023-04-10T03:55:54.529Z,3.10
2023-04-10T03:58:23.063Z,5.90
2023-04-10T04:00:51.706Z,5.40
2023-04-10T04:03:27.799Z,5.40
2023-04-10T04:06:00.634Z,3.10
2023-04-10T04:08:27.463Z,3.10
2023-04-10T04:11:12.986Z,3.00
2023-04-10T04:14:06.135Z,5.20
2023-04-10T04:17:01.993Z,6.00
2023-04-10T04:19:49.187Z,3.00
2023-04-10T04:22:26.163Z,4.50
2023-04-10T04:25:11.592Z,5.20
2023-04-10T04:27:53.266Z,2.90
2023-04-10T04:30:52.448Z,2.90
2023-04-10T04:33:25.452Z,2.90
2023-04-10T04:35:56.284Z,4.30
2023-04-10T04:38:36.744Z,3.50
2023-04-10T04:41:22.139Z,2.80
2023-04-10T04:44:05.184Z,4.40
2023-04-10T04:46:50.593Z,2.80
2023-04-10T04:49:17.459Z,2.80
2023-04-10T04:52:04.388Z,2.80
2023-04-10T04:54:54.300Z,2.70
2023-04-10T04:57:35.260Z,2.70
2023-04-10T05:00:31.330Z,2.70
2023-04-10T05:03:01.033Z,4.80
2023-04-10T05:05:57.743Z,5.20
2023-04-10T05:08:33.600Z,2.70
2023-04-10T05:11:08.024Z,2.70
2023-04-10T05:13:53.215Z,2.70
2023-04-10T05:16:44.844Z,2.60
2023-04-10T05:19:11.652Z,2.70
2023-04-10T05:21:41.526Z,2.70
2023-04-10T05:24:23.570Z,2.50
2023-04-10T05:27:09.347Z,5.40
2023-04-10T05:29:54.908Z,2.80
2023-04-10T05:32:39.545Z,2.90
2023-04-10T05:35:23.785Z,2.90
2023-04-10T05:38:10.940Z,2.90
2023-04-10T05:40:37.784Z,3.00
2023-04-10T05:43:22.004Z,3.00
2023-04-10T05:46:08.969Z,4.40
2023-04-10T05:48:49.288Z,3.10
2023-04-10T05:51:21.781Z,3.10
2023-04-10T05:54:07.289Z,3.20
2023-04-10T05:57:04.577Z,5.60
2023-04-10T05:59:37.354Z,3.40
2023-04-10T06:02:20.084Z,3.40
2023-04-10T06:04:47.810Z,3.50
2023-04-10T06:07:16.207Z,6.10
2023-04-10T06:09:43.090Z,3.50
2023-04-10T06:12:10.747Z,3.50
2023-04-10T06:14:39.889Z,3.60
2023-04-10T06:17:07.202Z,4.60
2023-04-10T06:19:34.161Z,3.70
2023-04-10T06:22:01.173Z,5.90
2023-04-10T06:24:28.956Z,3.90
2023-04-10T06:26:57.084Z,4.00
2023-04-10T06:29:24.579Z,4.20
2023-04-10T06:31:51.874Z,4.30
2023-04-10T06:34:21.397Z,4.40
2023-04-10T06:36:56.209Z,4.50
2023-04-10T06:39:31.984Z,7.40
2023-04-10T06:42:09.352Z,4.90
2023-04-10T06:44:46.126Z,5.70
2023-04-10T06:47:13.347Z,7.50
2023-04-10T06:49:40.430Z,8.10
2023-04-10T06:52:07.497Z,5.60
2023-04-10T06:54:34.420Z,8.30
2023-04-10T06:57:01.234Z,7.20
2023-04-10T06:59:29.127Z,6.20
2023-04-10T07:01:56.007Z,6.40
2023-04-10T07:04:22.858Z,6.70
2023-04-10T07:06:49.659Z,6.90
2023-04-10T07:09:16.481Z,7.10
2023-04-10T07:11:43.268Z,7.50
2023-04-10T07:14:10.162Z,10.20
2023-04-10T07:16:37.372Z,7.80
2023-04-10T07:19:04.290Z,8.30
2023-04-10T07:21:31.526Z,10.90
2023-04-10T07:23:58.390Z,9.60
2023-04-10T07:26:26.020Z,8.70
2023-04-10T07:28:53.173Z,8.90
2023-04-10T07:31:20.378Z,10.70
2023-04-10T07:33:47.334Z,9.40
2023-04-10T07:36:14.208Z,9.50
2023-04-10T07:38:42.401Z,9.60
2023-04-10T07:41:12.069Z,11.40
2023-04-10T07:43:38.982Z,12.00
2023-04-10T07:46:06.285Z,12.50
2023-04-10T07:48:33.174Z,10.20
2023-04-10T07:51:00.029Z,11.30
2023-04-10T07:53:27.276Z,11.50
2023-04-10T07:55:54.150Z,12.30
2023-04-10T07:58:21.651Z,13.30
2023-04-10T08:00:48.601Z,12.60
2023-04-10T08:03:16.144Z,11.80
2023-04-10T08:05:43.066Z,11.40
2023-04-10T08:08:09.896Z,11.80
2023-04-10T08:10:37.963Z,11.70
2023-04-10T08:13:05.417Z,11.90
2023-04-10T08:15:32.277Z,14.00
2023-04-10T08:17:59.134Z,13.20
2023-04-10T08:20:26.150Z,12.70
2023-04-10T08:22:53.767Z,15.00
2023-04-10T08:25:20.646Z,14.80
2023-04-10T08:27:47.483Z,13.00
2023-04-10T08:30:14.384Z,13.20
2023-04-10T08:32:41.361Z,13.30
2023-04-10T08:35:08.779Z,14.40
2023-04-10T08:37:36.005Z,13.60
2023-04-10T08:40:03.165Z,13.70
2023-04-10T08:42:33.940Z,13.80
2023-04-10T08:45:01.708Z,14.00
2023-04-10T08:47:29.053Z,14.10
2023-04-10T08:49:59.172Z,14.30
2023-04-10T08:52:26.684Z,14.30
2023-04-10T08:54:57.525Z,15.10
2023-04-10T08:57:24.874Z,14.40
2023-04-10T08:59:51.862Z,14.90
2023-04-10T09:02:19.554Z,15.90
2023-04-10T09:04:51.885Z,15.70
2023-04-10T09:07:18.885Z,15.50
2023-04-10T09:09:45.837Z,15.30
2023-04-10T09:12:14.061Z,14.90
2023-04-10T09:14:41.499Z,14.80
2023-04-10T09:17:12.630Z,16.70
2023-04-10T09:19:39.521Z,14.60
2023-04-10T09:22:06.512Z,16.10
2023-04-10T09:24:40.872Z,15.60
2023-04-10T09:27:07.931Z,14.90
2023-04-10T09:29:55.219Z,15.10
2023-04-10T09:32:52.587Z,14.70
2023-04-10T09:35:21.050Z,14.80
2023-04-10T09:37:47.959Z,14.90
2023-04-10T09:40:25.197Z,15.00
2023-04-10T09:42:52.210Z,17.60
2023-04-10T09:45:20.558Z,17.10
2023-04-10T09:48:03.499Z,16.40
2023-04-10T09:50:39.933Z,16.60
2023-04-10T09:53:14.722Z,16.40
2023-04-10T09:55:42.297Z,15.70
2023-04-10T09:58:09.586Z,17.20
2023-04-10T10:00:42.059Z,17.70
2023-04-10T10:03:13.843Z,15.80
2023-04-10T10:05:42.683Z,15.80
2023-04-10T10:08:13.390Z,15.90
2023-04-10T10:10:45.741Z,16.00
2023-04-10T10:13:17.828Z,17.40
2023-04-10T10:15:53.938Z,16.10
2023-04-10T10:18:36.702Z,17.90
2023-04-10T10:21:03.935Z,16.30
2023-04-10T10:23:32.077Z,16.50
2023-04-10T10:25:59.321Z,16.60
2023-04-10T10:28:27.159Z,16.80
2023-04-10T10:30:54.777Z,16.90
2023-04-10T10:33:21.621Z,18.00
2023-04-10T10:35:50.161Z,18.70
2023-04-10T10:38:17.076Z,17.00
2023-04-10T10:40:57.963Z,17.00
2023-04-10T10:43:57.980Z,17.00
2023-04-10T10:46:35.175Z,17.10
2023-04-10T10:49:02.454Z,17.20
2023-04-10T10:51:46.578Z,17.30
2023-04-10T10:54:32.304Z,18.20
2023-04-10T10:56:59.768Z,17.40
2023-04-10T10:59:48.626Z,17.50
2023-04-10T11:02:19.638Z,17.60
2023-04-10T11:04:47.949Z,17.70
2023-04-10T11:07:15.629Z,19.70
2023-04-10T11:09:57.305Z,18.30
2023-04-10T11:12:24.724Z,17.90
2023-04-10T11:14:59.273Z,19.50
2023-04-10T11:17:51.859Z,18.00
2023-04-10T11:20:21.861Z,17.90
2023-04-10T11:23:11.733Z,17.80
2023-04-10T11:25:54.036Z,17.90
2023-04-10T11:28:33.238Z,17.90
2023-04-10T11:31:23.000Z,17.80
2023-04-10T11:34:11.358Z,17.90
2023-04-10T11:36:39.513Z,18.30
2023-04-10T11:39:08.957Z,17.80
2023-04-10T11:41:37.415Z,17.90
2023-04-10T11:44:06.249Z,17.90
2023-04-10T11:46:39.907Z,19.00
2023-04-10T11:49:07.621Z,19.80
2023-04-10T11:51:34.464Z,17.80
2023-04-10T11:54:08.432Z,18.00
2023-04-10T11:56:35.591Z,18.00
2023-04-10T11:59:07.972Z,18.00
2023-04-10T12:01:34.979Z,18.00
2023-04-10T12:04:02.127Z,18.00
2023-04-10T12:06:29.071Z,18.50
2023-04-10T12:08:56.701Z,18.00
2023-04-10T12:11:28.794Z,17.90
2023-04-10T12:13:56.352Z,17.90
2023-04-10T12:16:23.357Z,17.90
2023-04-10T12:18:50.357Z,18.70
2023-04-10T12:21:17.316Z,18.00
2023-04-10T12:23:44.152Z,18.30
2023-04-10T12:26:17.210Z,18.20
2023-04-10T12:28:58.742Z,18.20
2023-04-10T12:31:32.557Z,18.30
2023-04-10T12:33:59.663Z,18.40
2023-04-10T12:36:30.290Z,19.90
2023-04-10T12:38:58.069Z,18.30
2023-04-10T12:41:26.391Z,18.30
2023-04-10T12:43:53.961Z,18.30
2023-04-10T12:46:28.164Z,18.60
2023-04-10T12:48:56.149Z,18.30
2023-04-10T12:51:45.245Z,19.90
2023-04-10T12:54:12.207Z,19.70
2023-04-10T12:56:47.583Z,18.40
2023-04-10T12:59:14.451Z,19.60
2023-04-10T13:01:41.412Z,19.60
2023-04-10T13:04:08.384Z,18.50
2023-04-10T13:06:46.002Z,19.80
2023-04-10T13:09:13.533Z,18.60
2023-04-10T13:11:40.858Z,19.70
2023-04-10T13:14:08.259Z,19.10
2023-04-10T13:16:35.455Z,18.70
2023-04-10T13:19:02.498Z,18.70
2023-04-10T13:21:29.610Z,18.70
2023-04-10T13:23:56.607Z,18.70
2023-04-10T13:26:24.096Z,18.70
2023-04-10T13:28:51.076Z,18.70
2023-04-10T13:31:18.028Z,18.70
2023-04-10T13:33:48.206Z,18.70
2023-04-10T13:36:15.691Z,18.70
2023-04-10T13:38:42.772Z,18.60
2023-04-10T13:41:09.713Z,18.60
2023-04-10T13:43:37.081Z,18.70
2023-04-10T13:46:03.996Z,18.60
2023-04-10T13:48:40.052Z,18.60
2023-04-10T13:51:08.032Z,18.60
2023-04-10T13:53:35.123Z,18.60
2023-04-10T13:56:02.079Z,18.60
2023-04-10T13:58:32.056Z,19.70
2023-04-10T14:00:59.417Z,18.50
2023-04-10T14:03:26.648Z,18.50
2023-04-10T14:05:54.031Z,18.50
2023-04-10T14:08:20.960Z,18.40
2023-04-10T14:10:54.322Z,18.40
2023-04-10T14:13:21.278Z,18.50
2023-04-10T14:15:48.305Z,18.50
2023-04-10T14:18:18.348Z,18.60
2023-04-10T14:20:45.397Z,18.60
2023-04-10T14:23:18.435Z,18.60
2023-04-10T14:25:46.440Z,18.60
2023-04-10T14:28:19.393Z,18.60
2023-04-10T14:30:50.572Z,18.70
2023-04-10T14:33:20.943Z,18.70
2023-04-10T14:35:48.427Z,18.70
2023-04-10T14:38:18.611Z,18.70
2023-04-10T14:40:50.178Z,18.70
2023-04-10T14:43:17.522Z,20.30
2023-04-10T14:45:44.600Z,18.60
2023-04-10T14:48:12.878Z,18.50
2023-04-10T14:50:40.578Z,18.50
2023-04-10T14:53:10.143Z,18.50
2023-04-10T14:55:37.413Z,20.40
2023-04-10T14:58:04.671Z,18.50
2023-04-10T15:00:32.829Z,18.50
2023-04-10T15:03:00.259Z,18.50
2023-04-10T15:05:27.553Z,18.40
2023-04-10T15:07:55.159Z,20.40
2023-04-10T15:10:22.484Z,18.20
2023-04-10T15:12:49.867Z,18.20
2023-04-10T15:15:18.580Z,18.10
2023-04-10T15:17:45.779Z,18.10
2023-04-10T15:20:12.878Z,18.00
2023-04-10T15:22:42.505Z,18.00
2023-04-10T15:25:12.178Z,18.00
2023-04-10T15:27:39.445Z,18.00
2023-04-10T15:30:07.089Z,17.90
2023-04-10T15:32:34.086Z,17.80
2023-04-10T15:35:01.097Z,17.80
2023-04-10T15:37:28.275Z,17.70
2023-04-10T15:39:55.279Z,17.70
2023-04-10T15:42:22.221Z,17.90
2023-04-10T15:44:49.371Z,18.50
2023-04-10T15:47:16.358Z,17.50
2023-04-10T15:49:43.337Z,17.50
2023-04-10T15:52:10.248Z,18.70
2023-04-10T15:54:38.853Z,18.70
2023-04-10T15:57:05.881Z,18.90
2023-04-10T15:59:33.277Z,17.20
2023-04-10T16:02:00.539Z,17.20
2023-04-10T16:04:27.775Z,17.20
2023-04-10T16:06:56.710Z,17.20
2023-04-10T16:09:26.387Z,17.50
2023-04-10T16:11:54.457Z,17.20
2023-04-10T16:14:22.511Z,17.10
2023-04-10T16:16:49.891Z,17.00
2023-04-10T16:19:16.841Z,16.90
2023-04-10T16:21:43.847Z,17.90
2023-04-10T16:24:10.757Z,17.60
2023-04-10T16:26:37.678Z,16.80
2023-04-10T16:29:04.566Z,16.80
2023-04-10T16:31:31.710Z,16.70
2023-04-10T16:33:58.762Z,16.70
2023-04-10T16:36:27.112Z,17.00
2023-04-10T16:38:54.759Z,16.60
2023-04-10T16:41:22.824Z,16.60
2023-04-10T16:43:49.906Z,17.90
2023-04-10T16:46:25.891Z,16.60
2023-04-10T16:49:04.455Z,16.50
2023-04-10T16:51:33.799Z,16.50
2023-04-10T16:54:09.257Z,18.60
2023-04-10T16:56:45.912Z,16.00
2023-04-10T16:59:21.942Z,16.30
2023-04-10T17:01:58.862Z,16.20
2023-04-10T17:04:29.068Z,16.20
2023-04-10T17:06:56.142Z,16.40
2023-04-10T17:09:23.206Z,16.00
2023-04-10T17:11:53.043Z,15.90
2023-04-10T17:14:20.955Z,15.80
2023-04-10T17:16:48.016Z,16.20
2023-04-10T17:19:15.149Z,15.90
2023-04-10T17:21:42.035Z,15.50
2023-04-10T17:24:09.111Z,15.50
2023-04-10T17:26:36.199Z,17.10
2023-04-10T17:29:03.110Z,17.00
2023-04-10T17:31:31.407Z,15.30
2023-04-10T17:33:58.786Z,15.20
2023-04-10T17:36:26.732Z,15.10
2023-04-10T17:38:54.280Z,15.00
2023-04-10T17:41:21.333Z,16.40
2023-04-10T17:43:48.709Z,15.30
2023-04-10T17:46:15.891Z,14.80
2023-04-10T17:48:46.496Z,15.40
2023-04-10T17:51:13.895Z,14.70
2023-04-10T17:53:40.928Z,14.60
2023-04-10T17:56:08.066Z,14.50
2023-04-10T17:58:35.167Z,14.40
2023-04-10T18:01:02.256Z,14.30
2023-04-10T18:03:29.239Z,14.20
2023-04-10T18:05:56.262Z,14.10
2023-04-10T18:08:23.239Z,14.10
2023-04-10T18:10:50.239Z,14.30
2023-04-10T18:13:17.201Z,14.30
2023-04-10T18:15:44.144Z,13.90
2023-04-10T18:18:13.209Z,13.80
2023-04-10T18:20:40.284Z,13.70
2023-04-10T18:23:07.571Z,16.10
2023-04-10T18:25:34.731Z,13.70
2023-04-10T18:28:13.081Z,13.50
2023-04-10T18:30:41.066Z,15.60
2023-04-10T18:33:11.050Z,14.70
2023-04-10T18:35:38.590Z,13.50
2023-04-10T18:38:05.668Z,13.30
2023-04-10T18:40:34.643Z,13.40
2023-04-10T18:43:01.561Z,15.00
2023-04-10T18:45:31.350Z,13.20
2023-04-10T18:47:58.956Z,13.10
2023-04-10T18:50:26.003Z,14.60
2023-04-10T18:52:52.992Z,13.10
2023-04-10T18:55:31.353Z,14.60
2023-04-10T18:57:59.514Z,12.90
2023-04-10T19:00:26.758Z,12.90
2023-04-10T19:02:54.363Z,13.40
2023-04-10T19:05:21.538Z,12.80
2023-04-10T19:08:00.627Z,12.80
2023-04-10T19:10:31.052Z,14.70
2023-04-10T19:12:57.970Z,15.20
2023-04-10T19:15:25.197Z,12.80
2023-04-10T19:18:00.282Z,13.10
2023-04-10T19:20:50.915Z,12.90
2023-04-10T19:23:18.537Z,14.60
2023-04-10T19:25:46.844Z,12.90
2023-04-10T19:28:13.767Z,14.20
2023-04-10T19:30:40.769Z,12.90
2023-04-10T19:33:09.114Z,13.10
2023-04-10T19:35:39.439Z,13.00
2023-04-10T19:38:08.316Z,12.90
2023-04-10T19:40:36.467Z,12.90
2023-04-10T19:43:04.041Z,12.80
2023-04-10T19:45:33.088Z,12.80
2023-04-10T19:48:01.138Z,12.70
2023-04-10T19:50:33.853Z,12.70
2023-04-10T19:53:00.732Z,12.60
2023-04-10T19:55:27.710Z,13.10
2023-04-10T19:57:54.998Z,12.50
2023-04-10T20:00:22.075Z,12.50
2023-04-10T20:02:50.983Z,12.90
2023-04-10T20:05:18.647Z,12.30
2023-04-10T20:07:45.614Z,12.60
2023-04-10T20:10:12.642Z,12.30
2023-04-10T20:12:39.609Z,12.20
2023-04-10T20:15:08.954Z,12.30
2023-04-10T20:17:36.135Z,12.10
2023-04-10T20:20:03.630Z,13.70
2023-04-10T20:22:32.347Z,12.10
2023-04-10T20:24:59.860Z,12.10
2023-04-10T20:27:26.790Z,12.00
2023-04-10T20:29:53.694Z,12.10
2023-04-10T20:32:20.592Z,12.00
2023-04-10T20:34:47.490Z,12.80
2023-04-10T20:37:18.766Z,13.40
2023-04-10T20:39:45.670Z,12.00
2023-04-10T20:42:12.526Z,13.10
2023-04-10T20:44:39.435Z,12.10
2023-04-10T20:47:06.741Z,11.70
2023-04-10T20:49:34.034Z,11.70
2023-04-10T20:52:01.062Z,11.50
2023-04-10T20:54:27.961Z,11.50
2023-04-10T20:56:56.793Z,11.60
2023-04-10T20:59:24.930Z,11.40
2023-04-10T21:01:52.046Z,11.30
2023-04-10T21:04:19.859Z,11.50
2023-04-10T21:06:46.851Z,11.20
2023-04-10T21:09:13.712Z,11.20
2023-04-10T21:11:41.055Z,11.50
2023-04-10T21:14:08.033Z,11.20
2023-04-10T21:16:37.494Z,13.20
2023-04-10T21:19:04.495Z,13.40
2023-04-10T21:21:38.284Z,11.40
2023-04-10T21:24:07.491Z,11.20
2023-04-10T21:26:34.806Z,13.30
2023-04-10T21:29:01.726Z,12.50
2023-04-10T21:31:28.717Z,13.10
2023-04-10T21:33:55.695Z,12.10
2023-04-10T21:36:22.574Z,11.10
2023-04-10T21:38:49.469Z,12.90
2023-04-10T21:41:16.423Z,9.20
2023-04-10T21:43:43.399Z,12.10
2023-04-10T21:46:10.966Z,12.60
2023-04-10T21:48:37.981Z,13.60
2023-04-10T21:51:04.988Z,13.20
2023-04-10T21:53:31.904Z,11.00
2023-04-10T21:55:58.744Z,12.40
2023-04-10T21:58:25.627Z,13.10
2023-04-10T22:00:54.372Z,13.20
2023-04-10T22:03:22.053Z,13.10
2023-04-10T22:05:50.243Z,12.90
2023-04-10T22:08:19.969Z,11.40
2023-04-10T22:10:48.147Z,12.10
2023-04-10T22:13:27.493Z,11.00
2023-04-10T22:15:56.938Z,12.80
2023-04-10T22:18:23.836Z,12.80
2023-04-10T22:20:50.877Z,11.10
2023-04-10T22:23:17.761Z,13.60
2023-04-10T22:25:44.672Z,11.70
2023-04-10T22:28:11.576Z,13.30
2023-04-10T22:30:38.541Z,13.20
2023-04-10T22:33:05.577Z,10.50
2023-04-10T22:35:32.721Z,13.00
2023-04-10T22:37:59.694Z,12.80
2023-04-10T22:40:26.613Z,12.20
2023-04-10T22:42:53.465Z,11.90
2023-04-10T22:45:20.394Z,11.80
2023-04-10T22:47:47.271Z,12.80
2023-04-10T22:50:14.130Z,12.40
2023-04-10T22:52:41.001Z,13.90
2023-04-10T22:55:08.267Z,13.20
2023-04-10T22:57:35.361Z,11.90
2023-04-10T23:00:02.268Z,13.20
2023-04-10T23:02:31.329Z,12.10
2023-04-10T23:04:58.417Z,12.20
2023-04-10T23:07:27.774Z,13.80
2023-04-10T23:09:54.744Z,12.70
2023-04-10T23:12:21.592Z,13.00
2023-04-10T23:14:48.469Z,12.50
2023-04-10T23:17:15.359Z,12.50
2023-04-10T23:19:42.308Z,13.00
2023-04-10T23:22:09.125Z,12.40
2023-04-10T23:24:36.027Z,12.90
2023-04-10T23:27:05.342Z,13.40
2023-04-10T23:29:32.722Z,14.00
2023-04-10T23:31:59.622Z,12.80
2023-04-10T23:34:26.889Z,14.20
2023-04-10T23:36:54.661Z,12.10
2023-04-10T23:39:22.048Z,12.00
2023-04-10T23:41:48.966Z,13.70
2023-04-10T23:44:15.842Z,12.40
2023-04-10T23:46:42.689Z,13.90
2023-04-10T23:49:09.630Z,12.90
2023-04-10T23:51:36.512Z,12.80
2023-04-10T23:54:03.708Z,12.80
2023-04-10T23:56:31.092Z,9.60
2023-04-10T23:58:58.042Z,11.80
